createdAt,value
2016-12-04T00:00:09.676Z,1.02
2016-12-04T00:01:10.293Z,0.96
2016-12-04T00:02:10.922Z,1.01
2016-12-04T00:03:11.547Z,0.95
2016-12-04T00:04:12.162Z,0.92
2016-12-04T00:05:12.774Z,0.96
2016-12-04T00:06:13.394Z,1.01
2016-12-04T00:07:14.007Z,0.98
2016-12-04T00:08:14.638Z,0.98
2016-12-04T00:09:15.247Z,0.92
2016-12-04T00:10:15.855Z,0.98
2016-12-04T00:11:16.474Z,0.91
2016-12-04T00:12:17.109Z,0.86
2016-12-04T00:13:17.716Z,0.94
2016-12-04T00:14:18.347Z,0.94
2016-12-04T00:15:18.968Z,0.94
2016-12-04T00:16:19.605Z,0.84
2016-12-04T00:17:20.218Z,0.86
2016-12-04T00:18:20.834Z,0.94
2016-12-04T00:19:21.460Z,0.84
2016-12-04T00:20:22.081Z,0.84
2016-12-04T00:21:22.728Z,0.87
2016-12-04T00:22:23.326Z,0.91
2016-12-04T00:23:23.939Z,0.83
2016-12-04T00:24:24.547Z,0.78
2016-12-04T00:25:25.179Z,0.91
2016-12-04T00:26:25.795Z,0.83
2016-12-04T00:27:26.433Z,0.92
2016-12-04T00:28:27.045Z,0.83
2016-12-04T00:29:27.671Z,0.91
2016-12-04T00:30:28.295Z,0.78
2016-12-04T00:31:28.921Z,0.83
2016-12-04T00:32:29.534Z,0.8
2016-12-04T00:33:30.167Z,0.74
2016-12-04T00:34:30.791Z,0.77
2016-12-04T00:35:31.464Z,0.83
2016-12-04T00:36:32.106Z,0.83
2016-12-04T00:37:32.715Z,0.83
2016-12-04T00:38:33.319Z,0.68
2016-12-04T00:39:33.927Z,0.73
2016-12-04T00:40:34.581Z,0.8
2016-12-04T00:41:35.202Z,0.74
2016-12-04T00:42:35.806Z,0.6
2016-12-04T00:43:36.421Z,0.65
2016-12-04T00:44:37.018Z,0.62
2016-12-04T00:45:37.634Z,0.8
2016-12-04T00:46:38.258Z,1.06
2016-12-04T00:47:38.889Z,1.24
2016-12-04T00:48:39.531Z,1.17
2016-12-04T00:49:40.154Z,1.16
2016-12-04T00:50:40.770Z,1.1
2016-12-04T00:51:41.388Z,0.99
2016-12-04T00:52:42.014Z,0.99
2016-12-04T00:53:42.635Z,1.01
2016-12-04T00:54:43.260Z,0.95
2016-12-04T00:55:43.863Z,1.02
2016-12-04T00:56:44.498Z,0.92
2016-12-04T00:57:45.115Z,0.91
2016-12-04T00:58:45.724Z,0.88
2016-12-04T00:59:46.361Z,0.87
2016-12-04T01:00:46.984Z,0.91
2016-12-04T01:01:47.603Z,0.92
2016-12-04T01:02:48.226Z,0.81
2016-12-04T01:03:48.859Z,0.88
2016-12-04T01:04:49.475Z,0.8
2016-12-04T01:05:50.088Z,0.86
2016-12-04T01:06:50.716Z,0.94
2016-12-04T01:07:51.341Z,0.88
2016-12-04T01:08:51.959Z,0.81
2016-12-04T01:09:52.598Z,0.8
2016-12-04T01:10:53.225Z,0.83
2016-12-04T01:11:53.855Z,0.88
2016-12-04T01:12:54.474Z,0.77
2016-12-04T01:13:55.086Z,0.94
2016-12-04T01:14:55.695Z,0.92
2016-12-04T01:15:56.341Z,0.81
2016-12-04T01:16:56.933Z,0.84
2016-12-04T01:17:57.544Z,0.83
2016-12-04T01:18:58.170Z,0.88
2016-12-04T01:19:58.788Z,0.86
2016-12-04T01:20:59.402Z,0.87
2016-12-04T01:22:00.003Z,0.87
2016-12-04T01:23:00.613Z,0.77
2016-12-04T01:24:01.230Z,0.8
2016-12-04T01:25:01.841Z,0.77
2016-12-04T01:26:02.455Z,0.77
2016-12-04T01:27:03.070Z,0.81
2016-12-04T01:28:03.698Z,0.88
2016-12-04T01:29:04.314Z,0.76
2016-12-04T01:30:04.922Z,0.87
2016-12-04T01:31:05.532Z,0.8
2016-12-04T01:32:06.141Z,0.83
2016-12-04T01:33:06.750Z,0.84
2016-12-04T01:34:07.372Z,0.87
2016-12-04T01:35:08.007Z,0.78
2016-12-04T01:36:08.617Z,0.87
2016-12-04T01:37:09.252Z,0.86
2016-12-04T01:38:09.862Z,0.81
2016-12-04T01:39:10.474Z,0.84
2016-12-04T01:40:11.117Z,0.83
2016-12-04T01:41:11.747Z,0.83
2016-12-04T01:42:12.358Z,0.8
2016-12-04T01:43:12.976Z,0.94
2016-12-04T01:44:13.591Z,0.81
2016-12-04T01:45:14.225Z,0.77
2016-12-04T01:46:14.841Z,0.84
2016-12-04T01:47:15.453Z,0.84
2016-12-04T01:48:16.088Z,0.86
2016-12-04T01:49:16.703Z,0.87
2016-12-04T01:50:17.308Z,0.88
2016-12-04T01:51:17.936Z,0.87
2016-12-04T01:52:18.544Z,0.98
2016-12-04T01:53:19.177Z,0.99
2016-12-04T01:54:19.799Z,1.01
2016-12-04T01:55:20.443Z,0.99
2016-12-04T01:56:21.046Z,1.04
2016-12-04T01:57:21.657Z,0.96
2016-12-04T01:58:22.276Z,0.98
2016-12-04T01:59:22.885Z,0.94
2016-12-04T02:00:23.496Z,1.04
2016-12-04T02:01:24.104Z,0.99
2016-12-04T02:02:24.729Z,0.99
2016-12-04T02:03:25.343Z,1.01
2016-12-04T02:04:25.959Z,1.04
2016-12-04T02:05:26.580Z,1.06
2016-12-04T02:06:27.210Z,1.04
2016-12-04T02:07:27.828Z,1.02
2016-12-04T02:08:28.441Z,1.01
2016-12-04T02:09:29.064Z,1.08
2016-12-04T02:10:29.694Z,1.05
2016-12-04T02:11:30.333Z,1.1
2016-12-04T02:12:31.001Z,1.06
2016-12-04T02:13:38.217Z,1.05
2016-12-04T02:14:38.839Z,1.1
2016-12-04T02:15:39.473Z,1.04
2016-12-04T02:16:40.073Z,1.17
2016-12-04T02:17:40.685Z,1.06
2016-12-04T02:18:41.297Z,1.1
2016-12-04T02:19:41.903Z,1.05
2016-12-04T02:20:42.556Z,1.02
2016-12-04T02:21:43.180Z,1.12
2016-12-04T02:22:43.798Z,1.12
2016-12-04T02:23:44.411Z,1.08
2016-12-04T02:24:45.030Z,1.1
2016-12-04T02:25:45.657Z,1.16
2016-12-04T02:26:46.275Z,1.16
2016-12-04T02:27:46.897Z,1.16
2016-12-04T02:28:47.523Z,1.19
2016-12-04T02:29:48.155Z,1.17
2016-12-04T02:30:48.778Z,1.13
2016-12-04T02:31:49.394Z,1.17
2016-12-04T02:32:50.006Z,1.22
2016-12-04T02:33:50.626Z,1.17
2016-12-04T02:34:51.245Z,1.23
2016-12-04T02:35:51.866Z,1.17
2016-12-04T02:36:52.497Z,1.17
2016-12-04T02:37:53.110Z,1.22
2016-12-04T02:38:53.733Z,1.22
2016-12-04T02:39:54.350Z,1.14
2016-12-04T02:40:54.977Z,1.17
2016-12-04T02:41:55.600Z,1.2
2016-12-04T02:42:56.213Z,1.23
2016-12-04T02:43:56.834Z,1.16
2016-12-04T02:44:57.458Z,1.13
2016-12-04T02:45:58.109Z,1.19
2016-12-04T02:46:58.720Z,1.23
2016-12-04T02:47:59.336Z,1.23
2016-12-04T02:48:59.955Z,1.23
2016-12-04T02:50:00.570Z,1.26
2016-12-04T02:51:01.180Z,1.24
2016-12-04T02:52:01.801Z,1.24
2016-12-04T02:53:02.416Z,1.26
2016-12-04T02:54:03.053Z,1.14
2016-12-04T02:55:03.671Z,1.24
2016-12-04T02:56:04.292Z,1.19
2016-12-04T02:57:04.912Z,1.31
2016-12-04T02:58:05.533Z,1.24
2016-12-04T02:59:06.153Z,1.22
2016-12-04T03:00:06.772Z,1.38
2016-12-04T03:01:07.421Z,1.32
2016-12-04T03:02:08.026Z,1.38
2016-12-04T03:03:08.637Z,1.38
2016-12-04T03:04:09.244Z,1.26
2016-12-04T03:05:09.885Z,1.34
2016-12-04T03:06:10.504Z,1.28
2016-12-04T03:07:11.119Z,1.34
2016-12-04T03:08:11.746Z,1.41
2016-12-04T03:09:12.384Z,1.44
2016-12-04T03:10:13.002Z,1.42
2016-12-04T03:11:13.616Z,1.4
2016-12-04T03:12:14.234Z,1.41
2016-12-04T03:13:14.864Z,1.49
2016-12-04T03:14:15.476Z,1.52
2016-12-04T03:15:16.091Z,1.52
2016-12-04T03:16:16.718Z,1.53
2016-12-04T03:17:17.339Z,1.45
2016-12-04T03:18:17.969Z,1.55
2016-12-04T03:19:18.596Z,1.49
2016-12-04T03:20:19.201Z,1.55
2016-12-04T03:21:19.808Z,1.53
2016-12-04T03:22:20.425Z,1.59
2016-12-04T03:23:21.045Z,1.52
2016-12-04T03:24:21.682Z,1.5
2016-12-04T03:25:22.306Z,1.45
2016-12-04T03:26:22.930Z,1.59
2016-12-04T03:27:23.532Z,1.52
2016-12-04T03:28:24.147Z,1.6
2016-12-04T03:29:24.786Z,1.62
2016-12-04T03:30:25.413Z,1.62
2016-12-04T03:31:26.029Z,1.59
2016-12-04T03:32:26.703Z,1.6
2016-12-04T03:33:27.327Z,1.66
2016-12-04T03:34:27.942Z,1.62
2016-12-04T03:35:28.559Z,1.68
2016-12-04T03:36:29.235Z,1.59
2016-12-04T03:37:29.853Z,1.6
2016-12-04T03:38:30.485Z,1.67
2016-12-04T03:39:31.084Z,1.76
2016-12-04T03:40:31.724Z,1.7
2016-12-04T03:41:32.336Z,1.77
2016-12-04T03:42:32.944Z,1.74
2016-12-04T03:43:33.557Z,1.76
2016-12-04T03:44:34.165Z,1.78
2016-12-04T03:45:34.843Z,1.8
2016-12-04T03:46:35.448Z,1.87
2016-12-04T03:47:36.057Z,1.77
2016-12-04T03:48:36.675Z,1.84
2016-12-04T03:49:37.316Z,1.8
2016-12-04T03:50:37.957Z,1.85
2016-12-04T03:51:38.570Z,1.84
2016-12-04T03:52:39.179Z,1.81
2016-12-04T03:53:39.838Z,1.8
2016-12-04T03:54:40.476Z,1.84
2016-12-04T03:55:41.095Z,1.88
2016-12-04T03:56:41.716Z,1.85
2016-12-04T03:57:42.328Z,1.87
2016-12-04T03:58:42.959Z,1.84
2016-12-04T03:59:43.578Z,1.88
2016-12-04T04:00:44.194Z,1.92
2016-12-04T04:01:44.807Z,1.94
2016-12-04T04:02:45.436Z,2
2016-12-04T04:03:46.054Z,1.91
2016-12-04T04:04:46.674Z,2
2016-12-04T04:05:47.291Z,1.91
2016-12-04T04:06:47.903Z,1.95
2016-12-04T04:07:48.525Z,1.94
2016-12-04T04:08:49.132Z,1.95
2016-12-04T04:09:49.783Z,1.87
2016-12-04T04:10:50.395Z,1.95
2016-12-04T04:11:51.032Z,1.99
2016-12-04T04:12:51.640Z,1.92
2016-12-04T04:13:52.274Z,2.02
2016-12-04T04:14:52.884Z,1.95
2016-12-04T04:15:53.484Z,2
2016-12-04T04:16:54.107Z,2.11
2016-12-04T04:17:54.740Z,2.06
2016-12-04T04:18:55.347Z,2.07
2016-12-04T04:19:55.968Z,2.04
2016-12-04T04:20:56.587Z,2.04
2016-12-04T04:21:57.198Z,1.94
2016-12-04T04:22:57.865Z,2.11
2016-12-04T04:23:58.487Z,2.04
2016-12-04T04:24:59.098Z,2.1
2016-12-04T04:25:59.731Z,2.06
2016-12-04T04:27:00.339Z,2.08
2016-12-04T04:28:00.959Z,2.11
2016-12-04T04:29:01.599Z,2.08
2016-12-04T04:30:02.213Z,2.07
2016-12-04T04:31:02.848Z,2.17
2016-12-04T04:32:03.461Z,2.14
2016-12-04T04:33:04.077Z,2.1
2016-12-04T04:34:04.691Z,2.17
2016-12-04T04:35:05.302Z,2.13
2016-12-04T04:36:05.946Z,2.11
2016-12-04T04:37:06.581Z,2.17
2016-12-04T04:38:07.184Z,2.11
2016-12-04T04:39:07.804Z,2.1
2016-12-04T04:40:08.449Z,2.08
2016-12-04T04:41:09.054Z,2.15
2016-12-04T04:42:09.651Z,2.17
2016-12-04T04:43:10.256Z,2.26
2016-12-04T04:44:10.901Z,2.2
2016-12-04T04:45:11.530Z,2.2
2016-12-04T04:46:12.174Z,2.22
2016-12-04T04:47:12.808Z,2.24
2016-12-04T04:48:13.432Z,2.22
2016-12-04T04:49:14.071Z,2.18
2016-12-04T04:50:14.686Z,2.17
2016-12-04T04:51:15.340Z,2.22
2016-12-04T04:52:15.959Z,2.18
2016-12-04T04:53:16.568Z,2.22
2016-12-04T04:54:17.189Z,2.15
2016-12-04T04:55:17.803Z,2.26
2016-12-04T04:56:18.450Z,2.25
2016-12-04T04:57:19.091Z,2.31
2016-12-04T04:58:19.723Z,2.29
2016-12-04T04:59:20.367Z,2.31
2016-12-04T05:00:21.002Z,2.35
2016-12-04T05:01:21.623Z,2.28
2016-12-04T05:02:22.239Z,2.29
2016-12-04T05:03:22.873Z,2.29
2016-12-04T05:04:23.488Z,2.26
2016-12-04T05:05:24.096Z,2.35
2016-12-04T05:06:24.715Z,2.29
2016-12-04T05:07:25.383Z,2.29
2016-12-04T05:08:25.985Z,2.31
2016-12-04T05:09:26.611Z,2.26
2016-12-04T05:10:27.224Z,2.29
2016-12-04T05:11:27.835Z,2.26
2016-12-04T05:12:28.453Z,2.29
2016-12-04T05:13:29.067Z,2.25
2016-12-04T05:14:29.682Z,2.29
2016-12-04T05:15:30.361Z,2.28
2016-12-04T05:16:30.969Z,2.33
2016-12-04T05:17:31.627Z,2.38
2016-12-04T05:18:32.236Z,2.32
2016-12-04T05:19:32.857Z,2.35
2016-12-04T05:20:33.478Z,2.33
2016-12-04T05:21:34.090Z,2.35
2016-12-04T05:22:34.719Z,2.35
2016-12-04T05:23:35.351Z,2.33
2016-12-04T05:24:35.971Z,2.39
2016-12-04T05:25:36.589Z,2.42
2016-12-04T05:26:37.217Z,2.39
2016-12-04T05:27:37.827Z,2.43
2016-12-04T05:28:38.445Z,2.28
2016-12-04T05:29:39.053Z,2.28
2016-12-04T05:30:39.679Z,2.36
2016-12-04T05:31:40.320Z,2.31
2016-12-04T05:32:40.947Z,2.39
2016-12-04T05:33:41.556Z,2.33
2016-12-04T05:34:42.178Z,2.44
2016-12-04T05:35:42.800Z,2.44
2016-12-04T05:36:43.427Z,2.36
2016-12-04T05:37:44.042Z,2.46
2016-12-04T05:38:44.668Z,2.47
2016-12-04T05:39:45.290Z,2.44
2016-12-04T05:40:45.910Z,2.44
2016-12-04T05:41:46.532Z,2.42
2016-12-04T05:42:47.171Z,2.39
2016-12-04T05:43:47.780Z,2.47
2016-12-04T05:44:48.404Z,2.53
2016-12-04T05:45:49.062Z,2.42
2016-12-04T05:46:49.698Z,2.47
2016-12-04T05:47:50.305Z,2.36
2016-12-04T05:48:50.927Z,2.36
2016-12-04T05:49:51.573Z,2.39
2016-12-04T05:50:52.178Z,2.57
2016-12-04T05:51:52.790Z,2.51
2016-12-04T05:52:53.404Z,2.44
2016-12-04T05:53:54.028Z,2.47
2016-12-04T05:54:54.634Z,2.53
2016-12-04T05:55:55.274Z,2.47
2016-12-04T05:56:55.885Z,2.56
2016-12-04T05:57:56.515Z,2.57
2016-12-04T05:58:57.148Z,2.49
2016-12-04T05:59:57.766Z,2.47
2016-12-04T06:00:58.372Z,2.49
2016-12-04T06:01:58.989Z,2.49
2016-12-04T06:02:59.611Z,2.51
2016-12-04T06:04:00.235Z,2.51
2016-12-04T06:05:00.854Z,2.54
2016-12-04T06:06:01.518Z,2.57
2016-12-04T06:07:02.157Z,2.56
2016-12-04T06:08:02.767Z,2.56
2016-12-04T06:09:03.390Z,2.57
2016-12-04T06:10:04.014Z,2.54
2016-12-04T06:11:04.632Z,2.62
2016-12-04T06:12:05.250Z,2.54
2016-12-04T06:13:05.871Z,2.62
2016-12-04T06:14:06.493Z,2.67
2016-12-04T06:15:07.109Z,2.67
2016-12-04T06:16:07.719Z,2.61
2016-12-04T06:17:08.336Z,2.61
2016-12-04T06:18:08.937Z,2.62
2016-12-04T06:19:09.571Z,2.65
2016-12-04T06:20:10.190Z,2.62
2016-12-04T06:21:10.809Z,2.61
2016-12-04T06:22:11.428Z,2.57
2016-12-04T06:23:12.039Z,2.67
2016-12-04T06:24:12.678Z,2.65
2016-12-04T06:25:13.292Z,2.65
2016-12-04T06:26:13.905Z,2.67
2016-12-04T06:27:14.512Z,2.68
2016-12-04T06:28:15.126Z,2.64
2016-12-04T06:29:15.744Z,2.72
2016-12-04T06:30:16.375Z,2.79
2016-12-04T06:31:16.998Z,2.64
2016-12-04T06:32:17.622Z,2.61
2016-12-04T06:33:18.232Z,2.75
2016-12-04T06:34:18.845Z,2.69
2016-12-04T06:35:19.477Z,2.64
2016-12-04T06:36:20.073Z,2.74
2016-12-04T06:37:20.704Z,2.74
2016-12-04T06:38:21.334Z,2.53
2016-12-04T06:39:21.953Z,2.61
2016-12-04T06:40:22.562Z,2.65
2016-12-04T06:41:23.180Z,2.71
2016-12-04T06:42:23.814Z,2.71
2016-12-04T06:43:24.459Z,2.67
2016-12-04T06:44:25.095Z,2.67
2016-12-04T06:45:25.722Z,2.75
2016-12-04T06:46:26.373Z,2.74
2016-12-04T06:47:26.987Z,2.71
2016-12-04T06:48:27.598Z,2.65
2016-12-04T06:49:28.209Z,2.68
2016-12-04T06:50:28.830Z,2.69
2016-12-04T06:51:29.439Z,2.69
2016-12-04T06:52:30.079Z,2.72
2016-12-04T06:53:30.702Z,2.64
2016-12-04T06:54:31.322Z,2.69
2016-12-04T06:55:31.928Z,2.67
2016-12-04T06:56:32.553Z,2.69
2016-12-04T06:57:33.167Z,2.79
2016-12-04T06:58:33.786Z,2.83
2016-12-04T06:59:34.416Z,2.72
2016-12-04T07:00:35.043Z,2.79
2016-12-04T07:01:35.663Z,2.69
2016-12-04T07:02:36.288Z,2.77
2016-12-04T07:03:36.929Z,2.64
2016-12-04T07:04:37.552Z,2.67
2016-12-04T07:05:38.188Z,2.71
2016-12-04T07:06:38.819Z,2.71
2016-12-04T07:07:39.432Z,2.75
2016-12-04T07:08:40.061Z,2.82
2016-12-04T07:09:40.669Z,2.8
2016-12-04T07:10:41.291Z,2.75
2016-12-04T07:11:41.915Z,2.74
2016-12-04T07:12:42.555Z,2.75
2016-12-04T07:13:43.187Z,2.79
2016-12-04T07:14:43.809Z,2.82
2016-12-04T07:15:44.436Z,2.82
2016-12-04T07:16:45.057Z,2.79
2016-12-04T07:17:45.696Z,2.83
2016-12-04T07:18:46.326Z,2.82
2016-12-04T07:19:46.942Z,2.86
2016-12-04T07:20:47.560Z,2.87
2016-12-04T07:21:48.194Z,2.87
2016-12-04T07:22:48.813Z,2.89
2016-12-04T07:23:49.431Z,2.89
2016-12-04T07:24:50.051Z,2.83
2016-12-04T07:25:50.668Z,2.89
2016-12-04T07:26:51.289Z,2.93
2016-12-04T07:27:51.906Z,2.89
2016-12-04T07:28:52.532Z,2.93
2016-12-04T07:29:53.147Z,2.92
2016-12-04T07:30:53.769Z,2.92
2016-12-04T07:31:54.387Z,2.92
2016-12-04T07:32:54.999Z,2.93
2016-12-04T07:33:55.626Z,2.9
2016-12-04T07:34:56.265Z,2.98
2016-12-04T07:35:56.889Z,2.89
2016-12-04T07:36:57.498Z,2.95
2016-12-04T07:37:58.136Z,2.97
2016-12-04T07:38:58.748Z,3.07
2016-12-04T07:39:59.373Z,3.01
2016-12-04T07:40:59.990Z,2.98
2016-12-04T07:42:00.608Z,2.92
2016-12-04T07:43:01.236Z,2.95
2016-12-04T07:44:01.848Z,2.95
2016-12-04T07:45:02.465Z,3.04
2016-12-04T07:46:03.103Z,2.98
2016-12-04T07:47:03.719Z,3.04
2016-12-04T07:48:04.349Z,3.05
2016-12-04T07:49:04.983Z,3.04
2016-12-04T07:50:05.602Z,3.07
2016-12-04T07:51:06.224Z,3.04
2016-12-04T07:52:06.853Z,3.11
2016-12-04T07:53:07.474Z,3.04
2016-12-04T07:54:08.097Z,3.13
2016-12-04T07:55:08.725Z,3.13
2016-12-04T07:56:09.338Z,3.08
2016-12-04T07:57:09.965Z,3.1
2016-12-04T07:58:10.587Z,3.04
2016-12-04T07:59:11.205Z,3.05
2016-12-04T08:00:11.816Z,3.08
2016-12-04T08:01:12.419Z,3.1
2016-12-04T08:02:13.035Z,3.16
2016-12-04T08:03:13.668Z,3.16
2016-12-04T08:04:14.282Z,3.21
2016-12-04T08:05:14.908Z,3.22
2016-12-04T08:06:15.519Z,3.18
2016-12-04T08:07:16.152Z,3.31
2016-12-04T08:08:16.763Z,3.26
2016-12-04T08:09:17.394Z,3.29
2016-12-04T08:10:18.017Z,3.25
2016-12-04T08:11:18.646Z,3.34
2016-12-04T08:12:19.279Z,3.23
2016-12-04T08:13:19.896Z,3.32
2016-12-04T08:14:20.535Z,3.32
2016-12-04T08:15:21.148Z,3.31
2016-12-04T08:16:21.795Z,3.34
2016-12-04T08:17:22.442Z,3.41
2016-12-04T08:18:23.123Z,3.37
2016-12-04T08:19:23.733Z,3.37
2016-12-04T08:20:24.352Z,3.41
2016-12-04T08:21:24.976Z,3.51
2016-12-04T08:22:25.632Z,3.4
2016-12-04T08:23:26.254Z,3.42
2016-12-04T08:24:26.866Z,3.42
2016-12-04T08:25:27.486Z,3.4
2016-12-04T08:26:28.113Z,3.51
2016-12-04T08:27:28.767Z,3.42
2016-12-04T08:28:29.392Z,3.47
2016-12-04T08:29:30.014Z,3.47
2016-12-04T08:30:30.636Z,3.53
2016-12-04T08:31:31.259Z,3.51
2016-12-04T08:32:31.885Z,3.6
2016-12-04T08:33:32.507Z,3.55
2016-12-04T08:34:33.120Z,3.56
2016-12-04T08:35:33.742Z,3.69
2016-12-04T08:36:34.364Z,3.65
2016-12-04T08:37:34.984Z,3.6
2016-12-04T08:38:35.627Z,3.91
2016-12-04T08:39:36.240Z,3.95
2016-12-04T08:40:36.865Z,3.94
2016-12-04T08:41:37.477Z,3.88
2016-12-04T08:42:38.094Z,3.78
2016-12-04T08:43:38.721Z,3.78
2016-12-04T08:44:39.350Z,3.8
2016-12-04T08:45:39.973Z,3.91
2016-12-04T08:46:40.598Z,3.94
2016-12-04T08:47:41.238Z,3.88
2016-12-04T08:48:41.885Z,3.91
2016-12-04T08:49:42.499Z,3.99
2016-12-04T08:50:43.123Z,3.95
2016-12-04T08:51:43.785Z,4.04
2016-12-04T08:52:44.395Z,3.95
2016-12-04T08:53:45.032Z,4.01
2016-12-04T08:54:45.657Z,3.94
2016-12-04T08:55:46.274Z,3.88
2016-12-04T08:56:46.884Z,3.94
2016-12-04T08:57:47.503Z,4.02
2016-12-04T08:58:48.148Z,3.96
2016-12-04T08:59:48.775Z,4.06
2016-12-04T09:00:49.397Z,4.01
2016-12-04T09:01:50.012Z,3.98
2016-12-04T09:02:50.631Z,3.92
2016-12-04T09:03:51.248Z,3.95
2016-12-04T09:04:51.872Z,4.1
2016-12-04T09:05:52.501Z,3.99
2016-12-04T09:06:53.112Z,4.06
2016-12-04T09:07:53.725Z,4.06
2016-12-04T09:08:54.342Z,4.04
2016-12-04T09:09:54.998Z,4.06
2016-12-04T09:10:55.620Z,4.05
2016-12-04T09:11:56.265Z,4.06
2016-12-04T09:12:56.887Z,4.1
2016-12-04T09:13:57.516Z,4.13
2016-12-04T09:14:58.188Z,4.17
2016-12-04T09:15:58.801Z,4.2
2016-12-04T09:16:59.423Z,4.22
2016-12-04T09:18:00.059Z,4.23
2016-12-04T09:19:00.689Z,4.22
2016-12-04T09:20:01.305Z,4.17
2016-12-04T09:21:01.949Z,4.2
2016-12-04T09:22:02.613Z,4.22
2016-12-04T09:23:03.246Z,4.23
2016-12-04T09:24:03.863Z,4.28
2016-12-04T09:25:04.491Z,4.24
2016-12-04T09:26:05.106Z,4.24
2016-12-04T09:27:05.717Z,4.3
2016-12-04T09:28:06.337Z,4.23
2016-12-04T09:29:06.972Z,4.31
2016-12-04T09:30:07.598Z,4.2
2016-12-04T09:31:08.216Z,4.28
2016-12-04T09:32:08.830Z,4.26
2016-12-04T09:33:09.459Z,4.31
2016-12-04T09:34:10.083Z,4.32
2016-12-04T09:35:10.695Z,4.3
2016-12-04T09:36:11.325Z,4.3
2016-12-04T09:37:11.966Z,4.28
2016-12-04T09:38:12.609Z,4.24
2016-12-04T09:39:13.235Z,4.37
2016-12-04T09:40:13.865Z,4.31
2016-12-04T09:41:14.483Z,4.3
2016-12-04T09:42:15.182Z,4.31
2016-12-04T09:43:15.796Z,4.45
2016-12-04T09:44:16.432Z,4.49
2016-12-04T09:45:17.047Z,4.42
2016-12-04T09:46:17.670Z,4.42
2016-12-04T09:47:18.288Z,4.44
2016-12-04T09:48:18.946Z,4.31
2016-12-04T09:49:19.570Z,4.41
2016-12-04T09:50:20.241Z,4.45
2016-12-04T09:51:20.860Z,4.41
2016-12-04T09:52:21.498Z,4.52
2016-12-04T09:53:22.127Z,4.49
2016-12-04T09:54:22.786Z,4.52
2016-12-04T09:55:23.401Z,4.67
2016-12-04T09:56:24.014Z,4.78
2016-12-04T09:57:24.641Z,4.75
2016-12-04T09:58:25.270Z,4.93
2016-12-04T09:59:25.882Z,5
2016-12-04T10:00:26.506Z,5.08
2016-12-04T10:01:27.127Z,5.08
2016-12-04T10:02:27.748Z,5.18
2016-12-04T10:03:28.385Z,5.23
2016-12-04T10:04:29.014Z,5.25
2016-12-04T10:05:29.634Z,5.21
2016-12-04T10:06:30.266Z,5.08
2016-12-04T10:07:30.891Z,5.35
2016-12-04T10:08:31.515Z,5.44
2016-12-04T10:09:32.165Z,5.48
2016-12-04T10:10:32.848Z,5.5
2016-12-04T10:11:33.479Z,5.36
2016-12-04T10:12:34.111Z,5.25
2016-12-04T10:13:34.735Z,5.35
2016-12-04T10:14:35.400Z,5.35
2016-12-04T10:15:36.051Z,5.3
2016-12-04T10:16:36.756Z,5.35
2016-12-04T10:17:37.570Z,5.35
2016-12-04T10:18:38.147Z,5.36
2016-12-04T10:19:38.789Z,5.36
2016-12-04T10:20:39.420Z,5.5
2016-12-04T10:21:40.058Z,5.43
2016-12-04T10:22:40.689Z,5.46
2016-12-04T10:23:41.330Z,5.56
2016-12-04T10:24:41.974Z,5.62
2016-12-04T10:25:42.634Z,5.71
2016-12-04T10:26:43.264Z,5.64
2016-12-04T10:27:43.895Z,5.79
2016-12-04T10:28:44.525Z,5.76
2016-12-04T10:29:45.169Z,5.66
2016-12-04T10:30:45.820Z,5.65
2016-12-04T10:31:46.444Z,5.61
2016-12-04T10:32:47.060Z,5.51
2016-12-04T10:33:47.700Z,5.53
2016-12-04T10:34:48.329Z,5.62
2016-12-04T10:35:48.965Z,5.56
2016-12-04T10:36:49.587Z,5.66
2016-12-04T10:37:50.211Z,5.62
2016-12-04T10:38:50.834Z,5.56
2016-12-04T10:39:51.488Z,5.54
2016-12-04T10:40:52.244Z,5.47
2016-12-04T10:41:52.903Z,5.48
2016-12-04T10:42:53.557Z,5.36
2016-12-04T10:43:54.191Z,5.38
2016-12-04T10:44:54.836Z,5.29
2016-12-04T10:45:55.462Z,5.23
2016-12-04T10:46:56.138Z,5.17
2016-12-04T10:47:56.767Z,5.17
2016-12-04T10:48:57.468Z,5.11
2016-12-04T10:49:58.094Z,5.04
2016-12-04T10:50:59.221Z,5.04
2016-12-04T10:51:59.852Z,4.94
2016-12-04T10:53:00.502Z,4.97
2016-12-04T10:54:01.131Z,4.99
2016-12-04T10:55:01.776Z,4.99
2016-12-04T10:56:02.425Z,4.9
2016-12-04T10:57:03.052Z,4.9
2016-12-04T10:58:03.672Z,4.93
2016-12-04T10:59:04.320Z,4.99
2016-12-04T11:00:04.961Z,4.8
2016-12-04T11:01:05.611Z,4.82
2016-12-04T11:02:06.252Z,4.84
2016-12-04T11:03:06.880Z,4.89
2016-12-04T11:04:07.497Z,4.84
2016-12-04T11:05:08.137Z,4.84
2016-12-04T11:06:09.719Z,4.75
2016-12-04T11:07:10.344Z,4.63
2016-12-04T11:08:10.985Z,4.71
2016-12-04T11:09:11.626Z,4.63
2016-12-04T11:10:12.264Z,4.71
2016-12-04T11:11:12.915Z,4.73
2016-12-04T11:12:13.543Z,4.66
2016-12-04T11:13:14.280Z,4.63
2016-12-04T11:14:14.913Z,4.73
2016-12-04T11:15:15.607Z,4.75
2016-12-04T11:16:16.239Z,4.82
2016-12-04T11:17:16.892Z,4.8
2016-12-04T11:18:17.515Z,4.87
2016-12-04T11:19:18.151Z,4.8
2016-12-04T11:20:18.795Z,4.84
2016-12-04T11:21:19.445Z,4.97
2016-12-04T11:22:20.091Z,5.15
2016-12-04T11:23:20.725Z,5.18
2016-12-04T11:24:21.354Z,5.07
2016-12-04T11:25:22.007Z,5.05
2016-12-04T11:26:22.649Z,4.92
2016-12-04T11:27:23.281Z,4.96
2016-12-04T11:28:23.906Z,4.97
2016-12-04T11:29:24.537Z,5.04
2016-12-04T11:30:25.184Z,5.05
2016-12-04T11:31:25.835Z,4.87
2016-12-04T11:32:26.537Z,4.82
2016-12-04T11:33:27.183Z,4.94
2016-12-04T11:34:27.811Z,4.89
2016-12-04T11:35:28.441Z,4.8
2016-12-04T11:36:29.072Z,4.84
2016-12-04T11:37:29.694Z,4.8
2016-12-04T11:38:30.338Z,4.75
2016-12-04T11:39:30.984Z,4.93
2016-12-04T11:40:31.614Z,4.86
2016-12-04T11:41:32.255Z,4.87
2016-12-04T11:42:32.876Z,4.9
2016-12-04T11:43:33.520Z,4.9
2016-12-04T11:44:34.142Z,4.89
2016-12-04T11:45:34.758Z,4.82
2016-12-04T11:46:35.386Z,4.86
2016-12-04T11:47:36.031Z,4.82
2016-12-04T11:48:36.662Z,4.87
2016-12-04T11:49:37.404Z,4.82
2016-12-04T11:50:38.019Z,4.82
2016-12-04T11:51:38.658Z,4.9
2016-12-04T11:52:39.279Z,4.84
2016-12-04T11:53:39.939Z,4.87
2016-12-04T11:54:40.565Z,4.74
2016-12-04T11:55:41.207Z,4.82
2016-12-04T11:56:41.852Z,4.86
2016-12-04T11:57:42.499Z,4.82
2016-12-04T11:58:43.141Z,4.92
2016-12-04T11:59:43.795Z,4.89
2016-12-04T12:00:44.469Z,4.97
2016-12-04T12:01:45.083Z,4.87
2016-12-04T12:02:45.705Z,4.87
2016-12-04T12:03:46.350Z,4.9
2016-12-04T12:04:46.975Z,4.97
2016-12-04T12:05:47.597Z,5.04
2016-12-04T12:06:48.238Z,5.04
2016-12-04T12:07:48.878Z,5.05
2016-12-04T12:08:49.514Z,5.04
2016-12-04T12:09:50.142Z,5.07
2016-12-04T12:10:50.793Z,5.04
2016-12-04T12:11:51.450Z,5.05
2016-12-04T12:12:52.087Z,5.02
2016-12-04T12:13:52.729Z,4.93
2016-12-04T12:14:53.383Z,4.93
2016-12-04T12:15:54.015Z,4.92
2016-12-04T12:16:54.624Z,5
2016-12-04T12:17:55.258Z,5.08
2016-12-04T12:18:55.899Z,5.05
2016-12-04T12:19:56.547Z,5.02
2016-12-04T12:20:57.223Z,5.07
2016-12-04T12:21:57.860Z,5.08
2016-12-04T12:22:58.481Z,5.07
2016-12-04T12:23:59.133Z,5.08
2016-12-04T12:24:59.756Z,5.08
2016-12-04T12:26:00.431Z,5.12
2016-12-04T12:27:01.067Z,5.15
2016-12-04T12:28:01.705Z,5.18
2016-12-04T12:29:02.342Z,5.2
2016-12-04T12:30:02.982Z,5.21
2016-12-04T12:31:03.630Z,5.33
2016-12-04T12:32:04.257Z,5.35
2016-12-04T12:33:04.890Z,5.38
2016-12-04T12:34:05.552Z,5.33
2016-12-04T12:35:06.191Z,5.48
2016-12-04T12:36:06.834Z,5.46
2016-12-04T12:37:07.467Z,5.32
2016-12-04T12:38:08.125Z,5.39
2016-12-04T12:39:08.768Z,5.41
2016-12-04T12:40:09.439Z,5.39
2016-12-04T12:41:10.089Z,5.38
2016-12-04T12:42:10.759Z,5.46
2016-12-04T12:43:11.424Z,5.46
2016-12-04T12:44:12.074Z,5.33
2016-12-04T12:45:12.750Z,5.36
2016-12-04T12:46:13.404Z,5.39
2016-12-04T12:47:14.035Z,5.3
2016-12-04T12:48:14.681Z,5.43
2016-12-04T12:49:15.342Z,5.36
2016-12-04T12:50:15.974Z,5.36
2016-12-04T12:51:16.639Z,5.38
2016-12-04T12:52:17.305Z,5.43
2016-12-04T12:53:17.964Z,5.43
2016-12-04T12:54:18.650Z,5.38
2016-12-04T12:55:19.300Z,5.47
2016-12-04T12:56:19.924Z,5.38
2016-12-04T12:57:20.577Z,5.48
2016-12-04T12:58:21.229Z,5.47
2016-12-04T12:59:21.885Z,5.48
2016-12-04T13:00:22.518Z,5.46
2016-12-04T13:01:23.160Z,5.36
2016-12-04T13:02:23.835Z,5.32
2016-12-04T13:03:24.487Z,5.39
2016-12-04T13:04:25.148Z,5.39
2016-12-04T13:05:25.795Z,5.39
2016-12-04T13:06:26.443Z,5.47
2016-12-04T13:07:27.112Z,5.44
2016-12-04T13:08:27.798Z,5.39
2016-12-04T13:09:28.477Z,5.44
2016-12-04T13:10:29.134Z,5.5
2016-12-04T13:11:29.800Z,5.47
2016-12-04T13:12:30.478Z,5.39
2016-12-04T13:13:31.114Z,5.36
2016-12-04T13:14:31.787Z,5.46
2016-12-04T13:15:32.481Z,5.39
2016-12-04T13:16:33.123Z,5.48
2016-12-04T13:17:33.778Z,5.39
2016-12-04T13:18:34.414Z,5.35
2016-12-04T13:19:35.079Z,5.41
2016-12-04T13:20:35.728Z,5.39
2016-12-04T13:21:36.358Z,5.48
2016-12-04T13:22:37.036Z,5.44
2016-12-04T13:23:37.666Z,5.44
2016-12-04T13:24:38.309Z,5.47
2016-12-04T13:25:38.954Z,5.46
2016-12-04T13:26:39.646Z,5.48
2016-12-04T13:27:40.287Z,5.5
2016-12-04T13:28:40.936Z,5.39
2016-12-04T13:29:41.583Z,5.44